createdAt,value
2019-05-25T00:02:25.935Z,12.80
2019-05-25T00:04:58.209Z,12.70
2019-05-25T00:07:29.159Z,12.70
2019-05-25T00:10:00.344Z,12.60
2019-05-25T00:12:30.673Z,12.60
2019-05-25T00:15:03.074Z,12.50
2019-05-25T00:17:36.144Z,12.60
2019-05-25T00:20:11.684Z,12.60
2019-05-25T00:22:41.802Z,12.50
2019-05-25T00:25:11.762Z,12.50
2019-05-25T00:27:41.928Z,12.50
2019-05-25T00:30:11.929Z,12.50
2019-05-25T00:32:41.877Z,12.50
2019-05-25T00:35:12.368Z,12.50
2019-05-25T00:37:44.018Z,12.40
2019-05-25T00:40:14.857Z,12.50
2019-05-25T00:42:48.766Z,12.40
2019-05-25T00:45:20.486Z,12.30
2019-05-25T00:47:51.594Z,12.10
2019-05-25T00:50:25.325Z,12.00
2019-05-25T00:52:55.282Z,12.00
2019-05-25T00:55:26.030Z,11.90
2019-05-25T00:57:56.030Z,12.00
2019-05-25T01:00:26.052Z,11.90
2019-05-25T01:02:57.552Z,12.00
2019-05-25T01:05:28.292Z,12.00
2019-05-25T01:07:58.102Z,12.00
2019-05-25T01:10:28.033Z,12.00
2019-05-25T01:12:59.399Z,12.00
2019-05-25T01:15:29.213Z,11.90
2019-05-25T01:18:08.383Z,11.90
2019-05-25T01:23:32.625Z,11.80
2019-05-25T01:26:10.834Z,11.80
2019-05-25T01:28:42.161Z,11.70
2019-05-25T01:31:25.482Z,11.70
2019-05-25T01:33:58.635Z,11.80
2019-05-25T01:36:29.657Z,11.80
2019-05-25T01:39:28.852Z,11.90
2019-05-25T01:42:02.879Z,11.90
2019-05-25T01:44:33.231Z,12.00
2019-05-25T01:51:18.246Z,12.00
2019-05-25T01:53:54.225Z,12.10
2019-05-25T01:56:47.996Z,12.00
2019-05-25T01:59:20.250Z,12.00
2019-05-25T02:02:51.099Z,12.00
2019-05-25T02:05:22.503Z,12.10
2019-05-25T02:08:01.899Z,12.10
2019-05-25T02:10:51.810Z,12.00
2019-05-25T02:13:22.226Z,12.00
2019-05-25T02:15:52.039Z,12.00
2019-05-25T02:19:14.762Z,12.10
2019-05-25T02:21:45.798Z,12.00
2019-05-25T02:25:16.347Z,11.90
2019-05-25T02:31:41.871Z,12.10
2019-05-25T02:37:24.932Z,12.10
2019-05-25T02:39:57.636Z,12.10
2019-05-25T02:46:07.330Z,12.20
2019-05-25T02:48:40.645Z,12.10
2019-05-25T02:51:21.282Z,12.20
2019-05-25T02:53:52.047Z,12.10
2019-05-25T02:56:22.179Z,12.10
2019-05-25T02:58:52.771Z,12.10
2019-05-25T03:01:23.737Z,12.10
2019-05-25T03:03:53.975Z,12.10
2019-05-25T03:06:25.306Z,12.20
2019-05-25T03:08:57.227Z,12.20
2019-05-25T03:11:29.540Z,12.10
2019-05-25T03:14:02.125Z,12.30
2019-05-25T03:16:31.887Z,12.30
2019-05-25T03:19:01.675Z,12.30
2019-05-25T03:21:31.513Z,12.20
2019-05-25T03:24:02.576Z,12.20
2019-05-25T03:26:33.579Z,12.30
2019-05-25T03:29:03.620Z,12.40
2019-05-25T03:31:35.865Z,12.40
2019-05-25T03:34:05.579Z,12.30
2019-05-25T03:36:36.133Z,12.40
2019-05-25T03:39:10.125Z,12.40
2019-05-25T03:41:40.396Z,12.40
2019-05-25T03:44:10.337Z,12.50
2019-05-25T03:46:41.222Z,12.50
2019-05-25T03:49:11.034Z,12.50
2019-05-25T03:51:40.764Z,12.50
2019-05-25T03:54:10.954Z,12.40
2019-05-25T03:56:40.954Z,12.40
2019-05-25T03:59:11.872Z,12.40
2019-05-25T04:01:42.292Z,12.30
2019-05-25T04:04:12.100Z,12.20
2019-05-25T04:06:42.220Z,12.00
2019-05-25T04:09:16.706Z,12.00
2019-05-25T04:11:47.397Z,11.70
2019-05-25T04:14:17.142Z,11.70
2019-05-25T04:16:47.363Z,11.70
2019-05-25T04:19:17.079Z,11.50
2019-05-25T04:21:46.813Z,11.50
2019-05-25T04:24:19.492Z,11.60
2019-05-25T04:26:51.980Z,11.70
2019-05-25T04:29:21.727Z,11.80
2019-05-25T04:31:51.674Z,12.00
2019-05-25T04:34:25.677Z,11.80
2019-05-25T04:36:56.032Z,11.90
2019-05-25T04:39:25.828Z,11.90
2019-05-25T04:41:55.996Z,11.90
2019-05-25T04:44:27.362Z,11.90
2019-05-25T04:46:57.083Z,12.00
2019-05-25T04:49:26.888Z,12.10
2019-05-25T04:51:56.791Z,12.20
2019-05-25T04:54:31.400Z,12.40
2019-05-25T04:57:01.330Z,12.40
2019-05-25T04:59:31.101Z,12.50
2019-05-25T05:02:00.902Z,12.60
2019-05-25T05:04:30.901Z,12.70
2019-05-25T05:07:00.636Z,12.80
2019-05-25T05:09:30.443Z,12.80
2019-05-25T05:12:01.650Z,12.80
2019-05-25T05:14:31.446Z,12.70
2019-05-25T05:17:01.281Z,12.70
2019-05-25T05:19:31.446Z,12.70
2019-05-25T05:22:01.282Z,12.70
2019-05-25T05:24:31.329Z,12.80
2019-05-25T05:27:01.600Z,12.80
2019-05-25T05:29:31.373Z,12.80
2019-05-25T05:32:01.290Z,12.70
2019-05-25T05:34:31.645Z,12.60
2019-05-25T05:37:03.344Z,12.60
2019-05-25T05:39:33.323Z,12.70
2019-05-25T05:42:07.306Z,12.80
2019-05-25T05:44:40.178Z,12.90
2019-05-25T05:47:12.026Z,13.00
2019-05-25T05:49:42.482Z,13.10
2019-05-25T05:52:14.275Z,13.10
2019-05-25T05:54:46.826Z,13.10
2019-05-25T05:57:20.482Z,13.10
2019-05-25T05:59:51.639Z,13.30
2019-05-25T06:02:31.513Z,13.40
2019-05-25T06:05:07.169Z,13.40
2019-05-25T06:07:37.898Z,13.50
2019-05-25T06:10:09.550Z,13.60
2019-05-25T06:12:50.976Z,13.60
2019-05-25T06:15:28.293Z,13.60
2019-05-25T06:17:58.042Z,13.70
2019-05-25T06:20:27.807Z,13.70
2019-05-25T06:22:59.627Z,13.90
2019-05-25T06:25:30.187Z,13.70
2019-05-25T06:28:22.373Z,13.90
2019-05-25T06:30:56.307Z,14.10
2019-05-25T06:33:26.300Z,14.30
2019-05-25T06:35:56.457Z,14.50
2019-05-25T06:38:26.153Z,14.50
2019-05-25T06:40:56.471Z,14.60
2019-05-25T06:43:26.720Z,14.60
2019-05-25T06:46:25.098Z,14.80
2019-05-25T06:48:54.829Z,14.90
2019-05-25T06:51:24.596Z,14.70
2019-05-25T06:53:54.459Z,14.70
2019-05-25T06:56:24.234Z,14.60
2019-05-25T06:58:53.983Z,14.40
2019-05-25T07:01:24.510Z,14.40
2019-05-25T07:03:54.727Z,14.50
2019-05-25T07:06:24.480Z,14.50
2019-05-25T07:08:54.470Z,14.40
2019-05-25T07:11:24.322Z,14.40
2019-05-25T07:14:01.780Z,14.50
2019-05-25T07:16:32.540Z,14.70
2019-05-25T07:19:02.483Z,14.80
2019-05-25T07:21:37.676Z,15.00
2019-05-25T07:24:07.744Z,15.00
2019-05-25T07:26:37.766Z,15.10
2019-05-25T07:29:08.071Z,15.10
2019-05-25T07:31:41.826Z,15.20
2019-05-25T07:34:11.763Z,15.30
2019-05-25T07:36:41.499Z,15.40
2019-05-25T07:39:13.656Z,15.40
2019-05-25T07:41:43.497Z,15.40
2019-05-25T07:44:13.493Z,15.30
2019-05-25T07:46:55.256Z,15.40
2019-05-25T07:49:24.993Z,15.60
2019-05-25T07:51:54.774Z,15.70
2019-05-25T07:54:25.076Z,15.70
2019-05-25T07:56:54.908Z,15.50
2019-05-25T07:59:24.647Z,15.40
2019-05-25T08:01:54.625Z,15.50
2019-05-25T08:04:28.942Z,15.90
2019-05-25T08:06:58.855Z,15.90
2019-05-25T08:09:28.762Z,15.30
2019-05-25T08:11:58.668Z,15.40
2019-05-25T08:14:45.208Z,15.30
2019-05-25T08:17:15.118Z,15.70
2019-05-25T08:19:44.915Z,16.10
2019-05-25T08:22:14.791Z,16.40
2019-05-25T08:24:44.565Z,16.60
2019-05-25T08:27:14.315Z,16.90
2019-05-25T08:29:44.205Z,16.90
2019-05-25T08:32:22.994Z,17.00
2019-05-25T08:34:52.910Z,17.00
2019-05-25T08:37:22.630Z,17.20
2019-05-25T08:39:52.391Z,17.20
2019-05-25T08:42:22.210Z,17.40
2019-05-25T08:44:51.962Z,17.50
2019-05-25T08:47:34.308Z,17.60
2019-05-25T08:50:04.588Z,17.80
2019-05-25T08:52:34.342Z,18.00
2019-05-25T08:55:04.572Z,17.40
2019-05-25T08:57:34.367Z,17.70
2019-05-25T09:00:04.643Z,17.30
2019-05-25T09:02:34.477Z,17.30
2019-05-25T09:05:04.807Z,17.40
2019-05-25T09:07:45.155Z,17.50
2019-05-25T09:10:16.917Z,17.50
2019-05-25T09:12:46.787Z,17.50
2019-05-25T09:15:16.802Z,17.60
2019-05-25T09:17:46.652Z,17.50
2019-05-25T09:20:16.572Z,17.60
2019-05-25T09:22:46.491Z,17.60
2019-05-25T09:25:17.951Z,17.40
2019-05-25T09:27:47.992Z,17.40
2019-05-25T09:30:18.258Z,17.50
2019-05-25T09:32:48.043Z,17.50
2019-05-25T09:35:17.971Z,17.60
2019-05-25T09:37:47.850Z,17.90
2019-05-25T09:40:19.163Z,17.60
2019-05-25T09:42:58.964Z,18.10
2019-05-25T09:45:28.462Z,18.20
2019-05-25T09:47:58.588Z,18.30
2019-05-25T09:50:28.466Z,18.30
2019-05-25T09:52:58.340Z,18.30
2019-05-25T09:55:28.112Z,18.20
2019-05-25T09:57:58.070Z,18.20
2019-05-25T10:00:28.062Z,18.20
2019-05-25T10:03:04.342Z,18.00
2019-05-25T10:05:37.142Z,18.10
2019-05-25T10:08:07.190Z,18.30
2019-05-25T10:10:38.714Z,18.40
2019-05-25T10:13:08.758Z,18.70
2019-05-25T10:15:38.631Z,18.20
2019-05-25T10:18:08.458Z,18.40
2019-05-25T10:20:42.168Z,18.80
2019-05-25T10:23:11.929Z,19.00
2019-05-25T10:25:42.722Z,19.10
2019-05-25T10:28:13.297Z,19.40
2019-05-25T10:30:43.076Z,19.30
2019-05-25T10:33:12.818Z,18.70
2019-05-25T10:35:47.275Z,19.00
2019-05-25T10:38:17.026Z,19.00
2019-05-25T10:40:46.939Z,19.10
2019-05-25T10:43:16.792Z,19.50
2019-05-25T10:45:47.803Z,19.70
2019-05-25T10:48:20.225Z,19.80
2019-05-25T10:50:51.611Z,19.60
2019-05-25T10:53:21.489Z,19.70
2019-05-25T10:55:51.337Z,20.00
2019-05-25T10:58:21.194Z,19.90
2019-05-25T11:00:51.302Z,19.90
2019-05-25T11:03:21.087Z,20.10
2019-05-25T11:05:54.766Z,19.80
2019-05-25T11:08:24.633Z,20.20
2019-05-25T11:10:54.332Z,19.90
2019-05-25T11:13:24.152Z,19.80
2019-05-25T11:15:53.913Z,19.80
2019-05-25T11:18:23.670Z,19.90
2019-05-25T11:21:01.275Z,19.70
2019-05-25T11:23:31.057Z,19.30
2019-05-25T11:26:00.945Z,19.20
2019-05-25T11:28:30.841Z,19.10
2019-05-25T11:31:00.842Z,18.50
2019-05-25T11:33:30.663Z,18.90
2019-05-25T11:36:00.657Z,19.30
2019-05-25T11:38:30.407Z,19.50
2019-05-25T11:41:09.220Z,18.90
2019-05-25T11:43:40.705Z,19.20
2019-05-25T11:46:10.686Z,19.70
2019-05-25T11:48:40.832Z,20.00
2019-05-25T11:51:10.599Z,20.30
2019-05-25T11:53:40.410Z,20.10
2019-05-25T11:56:10.263Z,19.00
2019-05-25T11:59:12.056Z,19.60
2019-05-25T12:01:41.950Z,19.90
2019-05-25T12:04:11.885Z,19.50
2019-05-25T12:06:41.684Z,19.10
2019-05-25T12:09:11.818Z,19.70
2019-05-25T12:11:41.674Z,20.10
2019-05-25T12:14:11.465Z,20.30
2019-05-25T12:16:41.225Z,20.50
2019-05-25T12:19:14.693Z,20.90
2019-05-25T12:21:42.684Z,21.10
2019-05-25T12:24:12.550Z,21.10
2019-05-25T12:26:43.137Z,21.50
2019-05-25T12:29:12.937Z,21.60
2019-05-25T12:31:42.840Z,21.70
2019-05-25T12:34:12.711Z,21.40
2019-05-25T12:36:42.470Z,20.90
2019-05-25T12:39:12.254Z,21.00
2019-05-25T12:41:42.502Z,21.20
2019-05-25T12:44:12.249Z,21.20
2019-05-25T12:46:42.006Z,22.00
2019-05-25T12:49:12.477Z,22.30
2019-05-25T12:51:42.286Z,22.10
2019-05-25T12:54:12.110Z,21.40
2019-05-25T12:56:42.004Z,21.70
2019-05-25T12:59:12.067Z,21.40
2019-05-25T13:01:41.834Z,20.20
2019-05-25T13:04:11.706Z,19.90
2019-05-25T13:06:41.448Z,19.80
2019-05-25T13:09:12.515Z,20.50
2019-05-25T13:11:42.439Z,21.00
2019-05-25T13:14:14.852Z,21.10
2019-05-25T13:16:43.630Z,21.20
2019-05-25T13:19:13.427Z,22.10
2019-05-25T13:21:43.529Z,21.80
2019-05-25T13:24:15.685Z,21.00
2019-05-25T13:26:45.535Z,20.90
2019-05-25T13:29:15.361Z,21.10
2019-05-25T13:31:45.150Z,21.00
2019-05-25T13:34:15.229Z,21.20
2019-05-25T13:36:45.272Z,22.30
2019-05-25T13:39:15.043Z,22.30
2019-05-25T13:41:44.970Z,21.70
2019-05-25T13:44:14.794Z,21.50
2019-05-25T13:46:44.841Z,21.30
2019-05-25T13:49:14.696Z,21.20
2019-05-25T13:51:44.581Z,21.20
2019-05-25T13:54:14.419Z,21.20
2019-05-25T13:56:44.232Z,21.50
2019-05-25T13:59:13.975Z,22.40
2019-05-25T14:01:45.008Z,23.20
2019-05-25T14:04:15.360Z,22.50
2019-05-25T14:06:45.086Z,22.10
2019-05-25T14:09:16.067Z,22.70
2019-05-25T14:11:46.083Z,23.30
2019-05-25T14:14:15.854Z,23.20
2019-05-25T14:16:45.667Z,22.70
2019-05-25T14:19:16.074Z,22.50
2019-05-25T14:21:45.826Z,22.10
2019-05-25T14:24:16.939Z,21.70
2019-05-25T14:26:46.844Z,21.00
2019-05-25T14:29:16.706Z,21.00
2019-05-25T14:31:46.560Z,21.30
2019-05-25T14:34:16.544Z,21.40
2019-05-25T14:36:46.485Z,21.10
2019-05-25T14:39:16.277Z,21.10
2019-05-25T14:41:46.165Z,20.90
2019-05-25T14:44:15.914Z,21.40
2019-05-25T14:46:46.092Z,22.20
2019-05-25T14:49:15.955Z,22.30
2019-05-25T14:51:45.769Z,22.90
2019-05-25T14:54:15.519Z,22.90
2019-05-25T14:56:49.911Z,22.90
2019-05-25T14:59:19.813Z,23.30
2019-05-25T15:02:01.867Z,23.00
2019-05-25T15:04:21.207Z,22.80
2019-05-25T15:06:51.306Z,22.80
2019-05-25T15:09:21.124Z,23.50
2019-05-25T15:11:53.814Z,23.00
2019-05-25T15:14:22.459Z,22.50
2019-05-25T15:16:52.594Z,22.70
2019-05-25T15:19:22.675Z,22.40
2019-05-25T15:21:52.519Z,22.00
2019-05-25T15:24:22.301Z,22.30
2019-05-25T15:26:52.217Z,22.70
2019-05-25T15:29:22.018Z,22.30
2019-05-25T15:31:52.090Z,22.10
2019-05-25T15:34:22.124Z,22.20
2019-05-25T15:36:51.911Z,22.70
2019-05-25T15:39:21.835Z,23.40
2019-05-25T15:41:51.775Z,23.80
2019-05-25T15:44:21.559Z,22.10
2019-05-25T15:46:51.729Z,21.80
2019-05-25T15:49:32.525Z,22.40
2019-05-25T15:51:53.481Z,22.70
2019-05-25T15:54:23.303Z,23.10
2019-05-25T15:56:53.246Z,23.30
2019-05-25T15:59:23.785Z,23.40
2019-05-25T16:01:54.039Z,23.10
2019-05-25T16:04:23.980Z,23.50
2019-05-25T16:06:53.841Z,23.60
2019-05-25T16:09:23.624Z,23.30
2019-05-25T16:11:53.535Z,23.50
2019-05-25T16:14:23.306Z,23.30
2019-05-25T16:16:54.405Z,22.60
2019-05-25T16:19:24.407Z,22.90
2019-05-25T16:21:54.211Z,23.40
2019-05-25T16:24:24.050Z,22.40
2019-05-25T16:26:56.337Z,22.60
2019-05-25T16:29:26.170Z,22.40
2019-05-25T16:31:56.287Z,22.10
2019-05-25T16:34:26.286Z,22.50
2019-05-25T16:36:58.580Z,22.50
2019-05-25T16:39:28.442Z,23.10
2019-05-25T16:41:58.457Z,22.70
2019-05-25T16:44:28.284Z,22.60
2019-05-25T16:46:59.611Z,22.10
2019-05-25T16:49:29.517Z,21.80
2019-05-25T16:51:59.330Z,22.10
2019-05-25T16:54:29.111Z,21.80
2019-05-25T16:56:59.120Z,21.90
2019-05-25T16:59:28.922Z,21.90
2019-05-25T17:01:59.169Z,22.00
2019-05-25T17:04:29.097Z,22.10
2019-05-25T17:06:58.916Z,22.20
2019-05-25T17:09:28.648Z,22.40
2019-05-25T17:11:58.576Z,22.30
2019-05-25T17:14:28.564Z,22.40
2019-05-25T17:16:59.675Z,22.10
2019-05-25T17:19:29.602Z,21.70
2019-05-25T17:21:59.352Z,21.40
2019-05-25T17:24:29.354Z,21.00
2019-05-25T17:26:59.395Z,21.00
2019-05-25T17:29:29.147Z,20.80
2019-05-25T17:32:01.513Z,20.80
2019-05-25T17:34:31.380Z,20.50
2019-05-25T17:37:01.213Z,20.60
2019-05-25T17:39:31.165Z,20.30
2019-05-25T17:42:01.010Z,20.00
2019-05-25T17:44:30.844Z,19.90
2019-05-25T17:47:04.219Z,20.00
2019-05-25T17:49:33.959Z,20.00
2019-05-25T17:52:03.783Z,20.00
2019-05-25T17:54:33.720Z,19.90
2019-05-25T17:57:03.607Z,19.80
2019-05-25T17:59:33.366Z,19.90
2019-05-25T18:02:05.026Z,19.80
2019-05-25T18:04:34.855Z,19.60
2019-05-25T18:07:05.182Z,19.60
2019-05-25T18:09:35.009Z,19.40
2019-05-25T18:12:05.011Z,19.30
2019-05-25T18:14:34.766Z,19.30
2019-05-25T18:17:07.022Z,19.20
2019-05-25T18:19:36.770Z,19.00
2019-05-25T18:22:06.651Z,18.70
2019-05-25T18:24:36.464Z,18.80
2019-05-25T18:27:06.499Z,18.90
2019-05-25T18:29:36.320Z,18.90
2019-05-25T18:32:06.684Z,18.80
2019-05-25T18:34:36.545Z,18.70
2019-05-25T18:37:06.338Z,18.70
